createdAt,value
2019-06-08T00:01:22.905Z,39.10
2019-06-08T00:03:52.706Z,39.33
2019-06-08T00:06:23.013Z,39.80
2019-06-08T00:08:52.945Z,39.03
2019-06-08T00:11:23.426Z,39.37
2019-06-08T00:13:53.371Z,39.23
2019-06-08T00:16:23.812Z,38.53
2019-06-08T00:18:53.733Z,38.70
2019-06-08T00:21:24.131Z,38.93
2019-06-08T00:23:57.849Z,38.37
2019-06-08T00:26:27.526Z,39.57
2019-06-08T00:28:57.844Z,39.03
2019-06-08T00:31:27.588Z,39.30
2019-06-08T00:33:57.273Z,39.80
2019-06-08T00:36:26.956Z,39.80
2019-06-08T00:38:56.738Z,38.90
2019-06-08T00:41:26.709Z,38.60
2019-06-08T00:43:56.794Z,38.93
2019-06-08T00:46:26.495Z,38.60
2019-06-08T00:48:56.303Z,38.70
2019-06-08T00:51:26.080Z,39.07
2019-06-08T00:53:55.727Z,39.00
2019-06-08T00:56:26.638Z,39.30
2019-06-08T00:58:56.343Z,39.23
2019-06-08T01:01:28.255Z,39.70
2019-06-08T01:03:58.067Z,39.40
2019-06-08T01:06:29.942Z,39.63
2019-06-08T01:08:59.599Z,38.67
2019-06-08T01:11:29.539Z,38.80
2019-06-08T01:14:00.707Z,39.13
2019-06-08T01:16:30.526Z,39.60
2019-06-08T01:19:00.215Z,39.30
2019-06-08T01:21:30.244Z,38.77
2019-06-08T01:23:59.945Z,39.40
2019-06-08T01:26:30.145Z,38.90
2019-06-08T01:29:01.712Z,38.67
2019-06-08T01:31:34.314Z,39.80
2019-06-08T01:34:04.887Z,38.13
2019-06-08T01:36:34.606Z,38.20
2019-06-08T01:39:07.725Z,39.27
2019-06-08T01:41:37.440Z,39.27
2019-06-08T01:44:07.108Z,39.53
2019-06-08T01:46:36.809Z,38.07
2019-06-08T01:49:07.268Z,38.10
2019-06-08T01:51:38.398Z,38.73
2019-06-08T01:54:08.243Z,38.20
2019-06-08T01:56:38.418Z,38.70
2019-06-08T01:59:08.154Z,39.27
2019-06-08T02:01:37.912Z,38.47
2019-06-08T02:04:07.574Z,38.17
2019-06-08T02:06:37.262Z,38.43
2019-06-08T02:09:09.880Z,38.63
2019-06-08T02:11:40.031Z,39.27
2019-06-08T02:14:09.702Z,38.67
2019-06-08T02:16:39.387Z,38.83
2019-06-08T02:19:09.058Z,38.57
2019-06-08T02:21:39.110Z,38.83
2019-06-08T02:24:09.121Z,38.63
2019-06-08T02:26:39.708Z,38.93
2019-06-08T02:29:09.662Z,38.83
2019-06-08T02:31:42.100Z,38.50
2019-06-08T02:34:11.888Z,39.27
2019-06-08T02:36:41.564Z,38.67
2019-06-08T02:39:11.276Z,39.03
2019-06-08T02:41:41.327Z,39.37
2019-06-08T02:44:10.981Z,38.90
2019-06-08T02:46:40.792Z,38.90
2019-06-08T02:49:10.442Z,38.83
2019-06-08T02:51:41.149Z,39.27
2019-06-08T02:54:13.490Z,39.70
2019-06-08T02:56:44.590Z,39.17
2019-06-08T02:59:18.679Z,38.77
2019-06-08T03:01:51.111Z,39.13
2019-06-08T03:04:22.433Z,39.40
2019-06-08T03:06:53.791Z,39.57
2019-06-08T03:09:27.545Z,39.83
2019-06-08T03:11:57.230Z,39.40
2019-06-08T03:14:28.926Z,39.97
2019-06-08T03:17:00.323Z,39.67
2019-06-08T03:19:31.272Z,40.30
2019-06-08T03:22:01.564Z,39.93
2019-06-08T03:24:32.483Z,40.07
2019-06-08T03:27:04.166Z,39.63
2019-06-08T03:29:34.963Z,39.77
2019-06-08T03:32:05.520Z,39.20
2019-06-08T03:34:39.777Z,39.60
2019-06-08T03:37:06.707Z,39.33
2019-06-08T03:39:37.003Z,39.13
2019-06-08T03:42:07.244Z,39.93
2019-06-08T03:44:38.434Z,39.33
2019-06-08T03:47:08.458Z,39.97
2019-06-08T03:49:48.774Z,40.00
2019-06-08T03:52:12.430Z,39.13
2019-06-08T03:54:43.055Z,38.83
2019-06-08T03:57:13.787Z,39.40
2019-06-08T03:59:45.608Z,39.37
2019-06-08T04:02:14.857Z,39.20
2019-06-08T04:04:46.274Z,38.60
2019-06-08T04:07:16.006Z,38.50
2019-06-08T04:09:46.008Z,38.50
2019-06-08T04:12:17.326Z,38.70
2019-06-08T04:14:50.089Z,39.20
2019-06-08T04:17:19.797Z,38.23
2019-06-08T04:20:06.321Z,37.70
2019-06-08T04:22:20.975Z,38.20
2019-06-08T04:24:50.766Z,38.23
2019-06-08T04:27:20.504Z,37.77
2019-06-08T04:29:50.290Z,38.50
2019-06-08T04:32:20.039Z,37.83
2019-06-08T04:34:50.069Z,38.20
2019-06-08T04:37:19.899Z,38.03
2019-06-08T04:39:50.911Z,37.37
2019-06-08T04:42:21.149Z,38.37
2019-06-08T04:44:50.835Z,37.93
2019-06-08T04:47:20.507Z,38.53
2019-06-08T04:49:50.370Z,37.83
2019-06-08T04:52:20.023Z,38.00
2019-06-08T04:54:49.958Z,38.30
2019-06-08T04:57:19.780Z,38.87
2019-06-08T04:59:50.459Z,38.33
2019-06-08T05:02:20.285Z,38.23
2019-06-08T05:04:50.088Z,37.70
2019-06-08T05:07:19.965Z,37.93
2019-06-08T05:09:49.639Z,37.83
2019-06-08T05:12:19.402Z,38.00
2019-06-08T05:14:49.345Z,38.17
2019-06-08T05:17:19.143Z,38.20
2019-06-08T05:19:50.559Z,38.63
2019-06-08T05:22:20.233Z,37.87
2019-06-08T05:24:50.181Z,38.93
2019-06-08T05:27:20.183Z,38.77
2019-06-08T05:29:50.186Z,37.97
2019-06-08T05:32:19.877Z,37.70
2019-06-08T05:34:49.782Z,38.00
2019-06-08T05:37:19.724Z,38.53
2019-06-08T05:39:49.956Z,38.77
2019-06-08T05:42:19.839Z,38.33
2019-06-08T05:44:50.272Z,37.90
2019-06-08T05:47:20.575Z,37.57
2019-06-08T05:49:50.255Z,38.03
2019-06-08T05:52:19.994Z,38.30
2019-06-08T05:54:51.141Z,38.67
2019-06-08T05:57:20.842Z,38.33
2019-06-08T05:59:50.538Z,38.30
2019-06-08T06:02:20.240Z,37.80
2019-06-08T06:04:52.257Z,38.50
2019-06-08T06:07:21.436Z,37.80
2019-06-08T06:09:51.281Z,39.17
2019-06-08T06:12:21.282Z,38.63
2019-06-08T06:14:51.295Z,38.43
2019-06-08T06:17:21.208Z,38.13
2019-06-08T06:19:52.839Z,38.23
2019-06-08T06:22:23.515Z,38.07
2019-06-08T06:24:53.314Z,38.53
2019-06-08T06:27:23.276Z,38.40
2019-06-08T06:29:54.351Z,38.53
2019-06-08T06:32:24.064Z,37.87
2019-06-08T06:34:53.796Z,37.97
2019-06-08T06:37:23.630Z,38.20
2019-06-08T06:39:53.303Z,38.73
2019-06-08T06:42:24.961Z,38.07
2019-06-08T06:44:54.739Z,37.83
2019-06-08T06:47:24.416Z,37.93
2019-06-08T06:49:54.196Z,38.17
2019-06-08T06:52:23.874Z,38.77
2019-06-08T06:54:53.637Z,37.80
2019-06-08T06:57:23.322Z,37.83
2019-06-08T06:59:54.186Z,38.57
2019-06-08T07:02:24.242Z,38.03
2019-06-08T07:04:54.390Z,38.50
2019-06-08T07:07:24.264Z,38.70
2019-06-08T07:09:54.885Z,37.83
2019-06-08T07:12:24.993Z,38.57
2019-06-08T07:14:55.514Z,37.80
2019-06-08T07:17:25.470Z,37.90
2019-06-08T07:19:55.159Z,38.37
2019-06-08T07:22:25.335Z,38.57
2019-06-08T07:24:55.134Z,37.80
2019-06-08T07:27:24.820Z,38.20
2019-06-08T07:29:54.785Z,37.77
2019-06-08T07:32:24.843Z,37.70
2019-06-08T07:34:55.327Z,38.70
2019-06-08T07:37:25.391Z,38.20
2019-06-08T07:39:56.181Z,38.13
2019-06-08T07:42:26.023Z,38.53
2019-06-08T07:44:55.942Z,37.13
2019-06-08T07:47:25.609Z,37.73
2019-06-08T07:49:55.671Z,38.73
2019-06-08T07:52:25.575Z,38.13
2019-06-08T07:54:56.552Z,38.17
2019-06-08T07:57:26.617Z,38.67
2019-06-08T07:59:56.464Z,38.10
2019-06-08T08:02:26.480Z,38.20
2019-06-08T08:04:56.727Z,38.97
2019-06-08T08:07:26.565Z,37.77
2019-06-08T08:09:56.971Z,38.20
2019-06-08T08:12:27.014Z,38.40
2019-06-08T08:14:58.085Z,38.43
2019-06-08T08:17:28.166Z,39.27
2019-06-08T08:19:59.309Z,38.47
2019-06-08T08:22:29.875Z,38.47
2019-06-08T08:25:03.268Z,38.60
2019-06-08T08:27:31.233Z,38.40
2019-06-08T08:30:02.116Z,38.90
2019-06-08T08:32:31.974Z,38.70
2019-06-08T08:35:03.055Z,38.90
2019-06-08T08:37:37.900Z,39.43
2019-06-08T08:40:09.550Z,38.43
2019-06-08T08:42:39.200Z,38.87
2019-06-08T08:45:09.685Z,38.93
2019-06-08T08:47:39.378Z,39.03
2019-06-08T08:50:10.144Z,39.27
2019-06-08T08:52:40.846Z,39.20
2019-06-08T08:55:11.203Z,39.00
2019-06-08T08:57:41.573Z,39.00
2019-06-08T09:00:13.769Z,39.10
2019-06-08T09:02:43.450Z,38.20
2019-06-08T09:05:13.456Z,38.70
2019-06-08T09:07:43.142Z,38.67
2019-06-08T09:10:18.136Z,38.73
2019-06-08T09:12:48.615Z,38.97
2019-06-08T09:15:23.020Z,38.63
2019-06-08T09:17:53.931Z,38.67
2019-06-08T09:20:25.214Z,38.57
2019-06-08T09:23:03.064Z,38.63
2019-06-08T09:25:28.028Z,38.80
2019-06-08T09:28:02.866Z,38.40
2019-06-08T09:30:31.219Z,38.63
2019-06-08T09:33:02.506Z,39.00
2019-06-08T09:35:32.519Z,38.87
2019-06-08T09:38:04.581Z,39.27
2019-06-08T09:40:33.718Z,38.10
2019-06-08T09:43:09.175Z,38.60
2019-06-08T09:45:34.862Z,38.70
2019-06-08T09:48:06.453Z,39.00
2019-06-08T09:50:38.469Z,39.13
2019-06-08T09:53:23.272Z,39.77
2019-06-08T09:55:41.370Z,39.43
2019-06-08T09:58:11.776Z,38.80
2019-06-08T10:00:41.861Z,39.20
2019-06-08T10:03:13.115Z,39.03
2019-06-08T10:05:42.788Z,39.57
2019-06-08T10:08:13.661Z,42.13
2019-06-08T10:10:43.357Z,39.40
2019-06-08T10:13:13.354Z,39.63
2019-06-08T10:15:43.131Z,39.40
2019-06-08T10:18:12.817Z,39.97
2019-06-08T10:20:42.495Z,39.60
2019-06-08T10:23:28.114Z,39.60
2019-06-08T10:25:43.710Z,39.90
2019-06-08T10:28:19.147Z,40.03
2019-06-08T10:30:48.390Z,39.90
2019-06-08T10:33:18.567Z,40.87
2019-06-08T10:35:48.865Z,40.07
2019-06-08T10:38:19.567Z,41.23
2019-06-08T10:41:09.174Z,39.27
2019-06-08T10:43:34.831Z,40.80
2019-06-08T10:46:09.988Z,39.80
2019-06-08T10:48:37.924Z,39.80
2019-06-08T10:51:12.489Z,39.73
2019-06-08T10:53:49.161Z,39.97
2019-06-08T10:56:12.330Z,41.10
2019-06-08T10:58:44.270Z,40.20
2019-06-08T11:01:14.153Z,39.80
2019-06-08T11:03:43.923Z,39.70
2019-06-08T11:06:13.775Z,39.60
2019-06-08T11:08:43.713Z,39.63
2019-06-08T11:11:13.590Z,40.10
2019-06-08T11:13:43.224Z,40.23
2019-06-08T11:16:13.630Z,39.23
2019-06-08T11:18:43.861Z,39.47
2019-06-08T11:21:13.592Z,39.57
2019-06-08T11:24:04.677Z,39.30
2019-06-08T11:26:23.952Z,40.40
2019-06-08T11:28:51.286Z,38.30
2019-06-08T11:31:21.449Z,40.23
2019-06-08T11:33:51.207Z,39.80
2019-06-08T11:36:20.897Z,39.17
2019-06-08T11:38:50.552Z,39.87
2019-06-08T11:41:22.786Z,39.73
2019-06-08T11:43:51.758Z,39.03
2019-06-08T11:46:22.271Z,39.40
2019-06-08T11:48:52.203Z,40.07
2019-06-08T11:51:21.989Z,39.70
2019-06-08T11:53:52.499Z,39.63
2019-06-08T11:56:24.618Z,39.77
2019-06-08T11:58:57.820Z,39.50
2019-06-08T12:01:27.728Z,39.23
2019-06-08T12:03:58.010Z,39.00
2019-06-08T12:06:27.784Z,39.77
2019-06-08T12:09:00.142Z,39.53
2019-06-08T12:11:28.871Z,39.33
2019-06-08T12:13:58.619Z,39.87
2019-06-08T12:16:28.456Z,39.80
2019-06-08T12:18:58.735Z,40.30
2019-06-08T12:21:28.427Z,40.03
2019-06-08T12:23:58.111Z,40.40
2019-06-08T12:26:28.411Z,40.00
2019-06-08T12:29:01.267Z,39.77
2019-06-08T12:31:30.691Z,40.63
2019-06-08T12:34:00.696Z,40.33
2019-06-08T12:36:30.742Z,40.60
2019-06-08T12:39:02.326Z,40.43
2019-06-08T12:41:33.203Z,40.17
2019-06-08T12:44:02.903Z,40.30
2019-06-08T12:46:33.741Z,39.90
2019-06-08T12:49:03.470Z,40.93
2019-06-08T12:51:33.135Z,40.27
2019-06-08T12:54:02.821Z,39.87
2019-06-08T12:56:32.510Z,39.80
2019-06-08T12:59:02.177Z,40.03
2019-06-08T13:01:33.094Z,40.30
2019-06-08T13:04:02.713Z,40.57
2019-06-08T13:06:32.416Z,40.33
2019-06-08T13:09:02.083Z,39.73
2019-06-08T13:11:31.877Z,40.20
2019-06-08T13:14:02.156Z,39.97
2019-06-08T13:16:33.292Z,40.13
2019-06-08T13:19:03.000Z,40.37
2019-06-08T13:21:35.407Z,39.77
2019-06-08T13:24:04.115Z,39.97
2019-06-08T13:26:34.116Z,39.60
2019-06-08T13:29:03.705Z,40.17
2019-06-08T13:31:33.375Z,40.73
2019-06-08T13:34:03.081Z,39.97
2019-06-08T13:36:32.750Z,40.07
2019-06-08T13:39:02.503Z,39.73
2019-06-08T13:41:32.340Z,39.80
2019-06-08T13:44:02.077Z,40.53
2019-06-08T13:46:31.743Z,40.47
2019-06-08T13:49:01.465Z,39.97
2019-06-08T13:51:31.705Z,39.13
2019-06-08T13:54:01.452Z,39.97
2019-06-08T13:56:31.134Z,39.93
2019-06-08T13:59:00.620Z,39.80
2019-06-08T14:01:30.974Z,40.00
2019-06-08T14:04:01.188Z,40.07
2019-06-08T14:06:31.068Z,39.87
2019-06-08T14:09:01.044Z,40.00
2019-06-08T14:11:30.767Z,40.47
2019-06-08T14:14:01.993Z,40.63
2019-06-08T14:16:31.711Z,40.47
2019-06-08T14:19:01.533Z,40.90
2019-06-08T14:21:40.089Z,40.10
2019-06-08T14:24:02.766Z,41.07
2019-06-08T14:26:34.098Z,40.63
2019-06-08T14:29:03.759Z,40.67
2019-06-08T14:31:34.686Z,40.50
2019-06-08T14:34:04.379Z,40.40
2019-06-08T14:36:34.107Z,40.03
2019-06-08T14:39:10.396Z,40.33
2019-06-08T14:41:38.170Z,40.50
2019-06-08T14:44:08.323Z,41.17
2019-06-08T14:46:41.440Z,40.13
2019-06-08T14:49:09.996Z,40.20
2019-06-08T14:51:49.212Z,40.23
2019-06-08T14:54:25.088Z,40.90
2019-06-08T14:56:54.947Z,40.47
2019-06-08T14:59:27.837Z,40.80
2019-06-08T15:01:58.262Z,40.50
2019-06-08T15:04:34.136Z,39.57
2019-06-08T15:06:59.450Z,40.37
2019-06-08T15:09:29.892Z,40.53
2019-06-08T15:11:59.581Z,41.50
2019-06-08T15:14:34.628Z,39.93
2019-06-08T15:17:08.579Z,39.73
2019-06-08T15:19:38.248Z,40.77
2019-06-08T15:22:11.281Z,40.67
2019-06-08T15:24:40.562Z,40.70
2019-06-08T15:27:12.374Z,40.57
2019-06-08T15:29:42.158Z,40.33
2019-06-08T15:32:11.986Z,40.43
2019-06-08T15:34:41.680Z,40.63
2019-06-08T15:37:12.834Z,40.40
2019-06-08T15:39:42.520Z,40.33
2019-06-08T15:42:12.242Z,40.63
2019-06-08T15:44:41.998Z,40.77
2019-06-08T15:47:12.942Z,40.93
2019-06-08T15:49:42.627Z,40.60
2019-06-08T15:52:34.167Z,40.80
2019-06-08T15:55:04.764Z,40.10
2019-06-08T15:57:38.067Z,41.47
2019-06-08T16:00:10.349Z,41.30
2019-06-08T16:02:41.406Z,40.17
2019-06-08T16:05:11.987Z,40.67
2019-06-08T16:07:42.867Z,40.17
2019-06-08T16:10:13.787Z,40.70
2019-06-08T16:12:45.083Z,41.20
2019-06-08T16:15:15.247Z,40.43
2019-06-08T16:17:45.527Z,41.10
2019-06-08T16:20:16.516Z,39.70
2019-06-08T16:22:47.072Z,40.33
2019-06-08T16:25:17.260Z,40.53
2019-06-08T16:27:47.014Z,40.33
2019-06-08T16:30:18.149Z,40.57
2019-06-08T16:32:49.004Z,40.50
2019-06-08T16:35:19.207Z,41.13
2019-06-08T16:37:50.463Z,41.13
2019-06-08T16:40:21.425Z,41.20
2019-06-08T16:42:52.279Z,40.23
2019-06-08T16:45:23.045Z,40.57
2019-06-08T16:47:53.792Z,41.70
2019-06-08T16:50:25.028Z,40.80
2019-06-08T16:52:55.153Z,41.40
2019-06-08T16:55:27.715Z,42.13
2019-06-08T16:57:58.242Z,41.73
2019-06-08T17:00:31.143Z,41.57
2019-06-08T17:03:01.633Z,41.57
2019-06-08T17:05:33.194Z,43.00
2019-06-08T17:08:03.959Z,42.57
2019-06-08T17:10:34.864Z,41.70
2019-06-08T17:13:05.832Z,42.30
2019-06-08T17:15:38.318Z,42.27
2019-06-08T17:18:10.516Z,42.47
2019-06-08T17:21:03.495Z,42.23
2019-06-08T17:23:34.459Z,42.50
2019-06-08T17:26:04.602Z,41.87
2019-06-08T17:28:35.379Z,43.20
2019-06-08T17:31:06.148Z,42.53
2019-06-08T17:33:37.276Z,42.73
2019-06-08T17:36:09.412Z,43.80
2019-06-08T17:38:41.485Z,42.10
2019-06-08T17:41:12.498Z,43.00
2019-06-08T17:43:42.912Z,42.90
2019-06-08T17:46:13.449Z,42.97
2019-06-08T17:48:44.509Z,42.30
2019-06-08T17:51:15.118Z,42.63
2019-06-08T17:53:45.915Z,43.13
2019-06-08T17:56:17.896Z,42.60
2019-06-08T17:58:50.989Z,42.70
2019-06-08T18:01:21.636Z,41.83
2019-06-08T18:03:53.123Z,41.73
2019-06-08T18:06:24.088Z,42.27
2019-06-08T18:08:55.147Z,42.10
2019-06-08T18:11:27.539Z,42.47
2019-06-08T18:13:58.875Z,42.27
2019-06-08T18:16:29.875Z,41.93
2019-06-08T18:19:00.472Z,41.57
2019-06-08T18:21:31.285Z,41.87
2019-06-08T18:24:02.725Z,42.03
2019-06-08T18:26:34.352Z,41.10
2019-06-08T18:29:07.792Z,41.53
2019-06-08T18:31:40.243Z,41.77
2019-06-08T18:34:11.080Z,43.03
2019-06-08T18:36:42.511Z,41.73
2019-06-08T18:39:14.040Z,41.47
2019-06-08T18:41:46.000Z,41.67
2019-06-08T18:44:17.819Z,41.60
2019-06-08T18:46:50.948Z,42.47
2019-06-08T18:49:21.788Z,41.50
2019-06-08T18:51:54.086Z,41.83
2019-06-08T18:54:27.619Z,41.07
2019-06-08T18:57:05.918Z,40.80
2019-06-08T18:59:41.851Z,40.33
2019-06-08T19:02:10.109Z,40.87
2019-06-08T19:04:41.791Z,41.23
2019-06-08T19:07:13.349Z,41.30
2019-06-08T19:09:47.554Z,41.57
2019-06-08T19:12:19.551Z,41.07
2019-06-08T19:14:52.378Z,40.50
2019-06-08T19:17:22.777Z,41.50
2019-06-08T19:19:54.817Z,41.20
2019-06-08T19:22:47.709Z,42.70
2019-06-08T19:25:17.673Z,40.57
2019-06-08T19:27:53.174Z,40.30
2019-06-08T19:30:24.330Z,41.17
2019-06-08T19:32:53.242Z,40.17
2019-06-08T19:35:23.668Z,39.83
2019-06-08T19:37:54.805Z,40.27
2019-06-08T19:40:27.165Z,40.63
2019-06-08T19:43:01.302Z,40.20
2019-06-08T19:45:30.788Z,41.10
2019-06-08T19:48:01.941Z,39.50
2019-06-08T19:50:33.058Z,39.67
2019-06-08T19:53:07.230Z,40.13
2019-06-08T19:55:37.736Z,39.80
2019-06-08T19:58:09.385Z,41.00
2019-06-08T20:00:41.088Z,39.57
2019-06-08T20:03:13.008Z,40.37
2019-06-08T20:05:45.198Z,40.10
2019-06-08T20:08:17.411Z,40.80
2019-06-08T20:10:49.602Z,41.07
2019-06-08T20:13:21.015Z,40.10
2019-06-08T20:15:57.306Z,41.40
2019-06-08T20:18:24.638Z,39.63
2019-06-08T20:20:58.429Z,39.73
2019-06-08T20:23:28.877Z,40.80
2019-06-08T20:26:00.816Z,40.23
2019-06-08T20:28:31.480Z,39.37
2019-06-08T20:31:02.333Z,39.43
2019-06-08T20:33:33.576Z,40.30
2019-06-08T20:36:04.606Z,40.60
2019-06-08T20:38:41.445Z,40.20
2019-06-08T20:41:07.978Z,40.70
2019-06-08T20:43:41.239Z,39.93
2019-06-08T20:46:13.163Z,40.03
2019-06-08T20:48:44.247Z,40.17
2019-06-08T20:51:17.106Z,40.93
2019-06-08T20:53:50.935Z,40.10
2019-06-08T20:56:24.451Z,40.33
2019-06-08T20:59:29.599Z,40.63
2019-06-08T21:01:48.928Z,40.60
2019-06-08T21:04:20.883Z,39.73
2019-06-08T21:06:52.825Z,39.27
2019-06-08T21:09:23.812Z,40.70
2019-06-08T21:11:56.344Z,40.03
2019-06-08T21:14:27.413Z,40.37
2019-06-08T21:16:59.007Z,40.53
2019-06-08T21:19:30.691Z,40.17
2019-06-08T21:22:02.273Z,40.63
2019-06-08T21:24:37.005Z,39.57
2019-06-08T21:27:08.331Z,40.07
2019-06-08T21:29:49.407Z,40.03
2019-06-08T21:32:17.575Z,39.37
2019-06-08T21:34:50.838Z,39.73
2019-06-08T21:37:20.830Z,39.33
2019-06-08T21:39:55.352Z,38.90
2019-06-08T21:42:24.346Z,39.07
2019-06-08T21:44:59.418Z,40.03
2019-06-08T21:47:32.191Z,40.33
2019-06-08T21:50:03.034Z,39.90
2019-06-08T21:52:35.101Z,40.27
2019-06-08T21:55:07.387Z,40.03
2019-06-08T21:57:38.148Z,40.60
2019-06-08T22:00:34.707Z,40.37
2019-06-08T22:02:42.979Z,40.03
2019-06-08T22:05:13.961Z,39.73
2019-06-08T22:07:44.393Z,40.00
2019-06-08T22:10:17.817Z,39.47
2019-06-08T22:12:51.805Z,39.57
2019-06-08T22:15:24.507Z,39.10
2019-06-08T22:17:55.063Z,38.60
2019-06-08T22:20:27.395Z,39.37
2019-06-08T22:22:59.326Z,39.60
2019-06-08T22:25:29.322Z,39.83
2019-06-08T22:28:00.952Z,38.83
2019-06-08T22:30:39.155Z,38.73
2019-06-08T22:33:03.961Z,39.23
2019-06-08T22:35:34.423Z,39.80
2019-06-08T22:38:05.035Z,39.90
2019-06-08T22:40:37.087Z,39.20
2019-06-08T22:43:08.228Z,38.93
2019-06-08T22:45:39.727Z,39.47
2019-06-08T22:48:10.358Z,38.77
2019-06-08T22:50:42.617Z,39.37
2019-06-08T22:53:14.802Z,39.60
2019-06-08T22:55:47.716Z,38.73
2019-06-08T22:58:19.416Z,39.17
2019-06-08T23:00:53.011Z,38.83
2019-06-08T23:03:22.904Z,39.53
2019-06-08T23:05:54.869Z,39.30
2019-06-08T23:08:27.092Z,38.97
2019-06-08T23:11:03.733Z,38.77
2019-06-08T23:13:37.685Z,39.17
2019-06-08T23:16:09.480Z,38.90
2019-06-08T23:18:41.749Z,38.73
2019-06-08T23:21:13.199Z,39.67
2019-06-08T23:23:43.940Z,39.30
2019-06-08T23:26:15.021Z,39.40
2019-06-08T23:28:47.139Z,39.90
2019-06-08T23:31:24.968Z,39.70
2019-06-08T23:33:52.988Z,38.67
2019-06-08T23:36:46.736Z,40.00
2019-06-08T23:38:57.251Z,39.77
2019-06-08T23:41:28.081Z,39.40
2019-06-08T23:43:59.532Z,38.47
2019-06-08T23:46:30.023Z,38.70
2019-06-08T23:49:03.915Z,38.27
2019-06-08T23:51:38.105Z,38.97
2019-06-08T23:54:12.042Z,39.17
2019-06-08T23:56:50.200Z,38.13
2019-06-08T23:59:21.499Z,38.63
